sensor_id;sensor_type;location;lat;lon;timestamp;pressure;altitude;pressure_sealevel;temperature;humidity
51287;BME280;37364;46.974;18.916;2023-03-03T00:02:20;151535.63;;;4.71;100.00
51287;BME280;37364;46.974;18.916;2023-03-03T00:04:50;151534.28;;;4.70;100.00
51287;BME280;37364;46.974;18.916;2023-03-03T00:07:20;151531.75;;;4.69;100.00
51287;BME280;37364;46.974;18.916;2023-03-03T00:09:50;151529.13;;;4.68;100.00
51287;BME280;37364;46.974;18.916;2023-03-03T00:12:23;151530.47;;;4.69;100.00
51287;BME280;37364;46.974;18.916;2023-03-03T00:14:56;151529.13;;;4.68;100.00
51287;BME280;37364;46.974;18.916;2023-03-03T00:17:28;151526.59;;;4.67;100.00
51287;BME280;37364;46.974;18.916;2023-03-03T00:20:01;151534.28;;;4.70;100.00
51287;BME280;37364;46.974;18.916;2023-03-03T00:22:51;151526.59;;;4.67;100.00
51287;BME280;37364;46.974;18.916;2023-03-03T00:25:27;151529.13;;;4.68;100.00
51287;BME280;37364;46.974;18.916;2023-03-03T00:28:00;151526.59;;;4.67;100.00
51287;BME280;37364;46.974;18.916;2023-03-03T00:30:39;151524.00;;;4.66;100.00
51287;BME280;37364;46.974;18.916;2023-03-03T00:33:20;151525.31;;;4.67;100.00
51287;BME280;37364;46.974;18.916;2023-03-03T00:35:54;151524.00;;;4.66;100.00
51287;BME280;37364;46.974;18.916;2023-03-03T00:38:25;151525.31;;;4.67;100.00
51287;BME280;37364;46.974;18.916;2023-03-03T00:40:56;151529.13;;;4.68;100.00
51287;BME280;37364;46.974;18.916;2023-03-03T00:43:33;151530.47;;;4.69;100.00
51287;BME280;37364;46.974;18.916;2023-03-03T00:46:07;151527.88;;;4.68;100.00
51287;BME280;37364;46.974;18.916;2023-03-03T00:48:42;151524.00;;;4.66;100.00
51287;BME280;37364;46.974;18.916;2023-03-03T00:51:24;151516.28;;;4.63;100.00
51287;BME280;37364;46.974;18.916;2023-03-03T00:53:59;151513.69;;;4.62;100.00
51287;BME280;37364;46.974;18.916;2023-03-03T00:56:31;151517.56;;;4.64;100.00
51287;BME280;37364;46.974;18.916;2023-03-03T00:59:01;151512.41;;;4.62;100.00
51287;BME280;37364;46.974;18.916;2023-03-03T01:01:36;151516.28;;;4.63;100.00
51287;BME280;37364;46.974;18.916;2023-03-03T01:04:08;151516.28;;;4.63;100.00
51287;BME280;37364;46.974;18.916;2023-03-03T01:06:38;151517.56;;;4.64;100.00
51287;BME280;37364;46.974;18.916;2023-03-03T01:09:09;151513.69;;;4.62;100.00
51287;BME280;37364;46.974;18.916;2023-03-03T01:11:39;151509.84;;;4.61;100.00
51287;BME280;37364;46.974;18.916;2023-03-03T01:14:10;151511.13;;;4.61;100.00
51287;BME280;37364;46.974;18.916;2023-03-03T01:16:43;151509.84;;;4.61;100.00
51287;BME280;37364;46.974;18.916;2023-03-03T01:19:16;151508.53;;;4.60;100.00
51287;BME280;37364;46.974;18.916;2023-03-03T01:21:47;151511.13;;;4.61;100.00
51287;BME280;37364;46.974;18.916;2023-03-03T01:24:20;151509.84;;;4.61;100.00
51287;BME280;37364;46.974;18.916;2023-03-03T01:26:54;151508.53;;;4.60;100.00
51287;BME280;37364;46.974;18.916;2023-03-03T01:29:26;151508.53;;;4.60;100.00
51287;BME280;37364;46.974;18.916;2023-03-03T01:31:59;151505.97;;;4.59;100.00
51287;BME280;37364;46.974;18.916;2023-03-03T01:34:29;151505.97;;;4.59;100.00
51287;BME280;37364;46.974;18.916;2023-03-03T01:37:00;151504.66;;;4.59;100.00
51287;BME280;37364;46.974;18.916;2023-03-03T01:39:30;151507.25;;;4.60;100.00
51287;BME280;37364;46.974;18.916;2023-03-03T01:42:02;151504.66;;;4.59;100.00
51287;BME280;37364;46.974;18.916;2023-03-03T01:44:35;151495.66;;;4.55;100.00
51287;BME280;37364;46.974;18.916;2023-03-03T01:47:09;151496.94;;;4.55;100.00
51287;BME280;37364;46.974;18.916;2023-03-03T01:49:43;151493.06;;;4.54;100.00
51287;BME280;37364;46.974;18.916;2023-03-03T01:52:22;151489.19;;;4.52;100.00
51287;BME280;37364;46.974;18.916;2023-03-03T01:55:00;151481.47;;;4.49;100.00
51287;BME280;37364;46.974;18.916;2023-03-03T01:57:35;151487.91;;;4.52;100.00
51287;BME280;37364;46.974;18.916;2023-03-03T02:00:10;151480.22;;;4.49;100.00
51287;BME280;37364;46.974;18.916;2023-03-03T02:02:45;151463.41;;;4.42;100.00
51287;BME280;37364;46.974;18.916;2023-03-03T02:05:16;151457.00;;;4.40;100.00
51287;BME280;37364;46.974;18.916;2023-03-03T02:07:47;151458.28;;;4.40;100.00
51287;BME280;37364;46.974;18.916;2023-03-03T02:10:18;151444.09;;;4.34;100.00
51287;BME280;37364;46.974;18.916;2023-03-03T02:12:53;151438.94;;;4.32;100.00
51287;BME280;37364;46.974;18.916;2023-03-03T02:15:27;151423.47;;;4.26;100.00
51287;BME280;37364;46.974;18.916;2023-03-03T02:18:03;151424.75;;;4.27;100.00
51287;BME280;37364;46.974;18.916;2023-03-03T02:20:43;151415.72;;;4.23;100.00
51287;BME280;37364;46.974;18.916;2023-03-03T02:23:22;151400.25;;;4.17;100.00
51287;BME280;37364;46.974;18.916;2023-03-03T02:26:11;151405.41;;;4.19;100.00
51287;BME280;37364;46.974;18.916;2023-03-03T02:28:42;151397.72;;;4.16;100.00
51287;BME280;37364;46.974;18.916;2023-03-03T02:31:14;151405.41;;;4.19;100.00
51287;BME280;37364;46.974;18.916;2023-03-03T02:33:47;151406.75;;;4.20;100.00
51287;BME280;37364;46.974;18.916;2023-03-03T02:36:19;151402.88;;;4.18;100.00
51287;BME280;37364;46.974;18.916;2023-03-03T02:38:54;151396.38;;;4.15;100.00
51287;BME280;37364;46.974;18.916;2023-03-03T02:41:32;151399.00;;;4.16;100.00
51287;BME280;37364;46.974;18.916;2023-03-03T02:44:07;151393.84;;;4.14;100.00
51287;BME280;37364;46.974;18.916;2023-03-03T02:46:40;151397.72;;;4.16;100.00
51287;BME280;37364;46.974;18.916;2023-03-03T02:49:13;151402.88;;;4.18;100.00
51287;BME280;37364;46.974;18.916;2023-03-03T02:51:44;151396.38;;;4.15;100.00
51287;BME280;37364;46.974;18.916;2023-03-03T02:54:15;151389.97;;;4.13;100.00
51287;BME280;37364;46.974;18.916;2023-03-03T02:56:49;151399.00;;;4.16;100.00
51287;BME280;37364;46.974;18.916;2023-03-03T02:59:19;151401.59;;;4.18;100.00
51287;BME280;37364;46.974;18.916;2023-03-03T03:01:54;151402.88;;;4.18;100.00
51287;BME280;37364;46.974;18.916;2023-03-03T03:04:26;151404.13;;;4.19;100.00
51287;BME280;37364;46.974;18.916;2023-03-03T03:06:58;151408.03;;;4.20;100.00
51287;BME280;37364;46.974;18.916;2023-03-03T03:09:30;151406.75;;;4.20;100.00
51287;BME280;37364;46.974;18.916;2023-03-03T03:12:04;151409.28;;;4.21;100.00
51287;BME280;37364;46.974;18.916;2023-03-03T03:14:35;151411.91;;;4.22;100.00
51287;BME280;37364;46.974;18.916;2023-03-03T03:17:06;151417.06;;;4.24;100.00
51287;BME280;37364;46.974;18.916;2023-03-03T03:19:38;151410.56;;;4.21;100.00
51287;BME280;37364;46.974;18.916;2023-03-03T03:22:08;151415.72;;;4.23;100.00
51287;BME280;37364;46.974;18.916;2023-03-03T03:24:39;151413.16;;;4.22;100.00
51287;BME280;37364;46.974;18.916;2023-03-03T03:27:12;151409.28;;;4.21;100.00
51287;BME280;37364;46.974;18.916;2023-03-03T03:29:43;151408.03;;;4.20;100.00
51287;BME280;37364;46.974;18.916;2023-03-03T03:32:13;151411.91;;;4.22;100.00
51287;BME280;37364;46.974;18.916;2023-03-03T03:34:44;151404.13;;;4.19;100.00
51287;BME280;37364;46.974;18.916;2023-03-03T03:37:15;151401.59;;;4.18;100.00
51287;BME280;37364;46.974;18.916;2023-03-03T03:39:46;151397.72;;;4.16;100.00
51287;BME280;37364;46.974;18.916;2023-03-03T03:42:21;151402.88;;;4.18;100.00
51287;BME280;37364;46.974;18.916;2023-03-03T03:44:52;151397.72;;;4.16;100.00
51287;BME280;37364;46.974;18.916;2023-03-03T03:47:22;151399.00;;;4.16;100.00
51287;BME280;37364;46.974;18.916;2023-03-03T03:49:53;151396.38;;;4.15;100.00
51287;BME280;37364;46.974;18.916;2023-03-03T03:52:24;151389.97;;;4.13;100.00
51287;BME280;37364;46.974;18.916;2023-03-03T03:54:54;151393.84;;;4.14;100.00
51287;BME280;37364;46.974;18.916;2023-03-03T03:57:27;151395.13;;;4.15;100.00
51287;BME280;37364;46.974;18.916;2023-03-03T03:59:57;151397.72;;;4.16;100.00
51287;BME280;37364;46.974;18.916;2023-03-03T04:02:28;151400.25;;;4.17;100.00
51287;BME280;37364;46.974;18.916;2023-03-03T04:04:58;151393.84;;;4.14;100.00
51287;BME280;37364;46.974;18.916;2023-03-03T04:07:29;151395.13;;;4.15;100.00
51287;BME280;37364;46.974;18.916;2023-03-03T04:10:00;151393.84;;;4.14;100.00
51287;BME280;37364;46.974;18.916;2023-03-03T04:12:34;151387.41;;;4.12;100.00
51287;BME280;37364;46.974;18.916;2023-03-03T04:15:11;151386.09;;;4.11;100.00
51287;BME280;37364;46.974;18.916;2023-03-03T04:17:43;151392.56;;;4.14;100.00
51287;BME280;37364;46.974;18.916;2023-03-03T04:20:14;151392.56;;;4.14;100.00
51287;BME280;37364;46.974;18.916;2023-03-03T04:22:45;151393.84;;;4.14;100.00
51287;BME280;37364;46.974;18.916;2023-03-03T04:25:17;151392.56;;;4.14;100.00
51287;BME280;37364;46.974;18.916;2023-03-03T04:27:52;151389.97;;;4.13;100.00
51287;BME280;37364;46.974;18.916;2023-03-03T04:30:22;151387.41;;;4.12;100.00
51287;BME280;37364;46.974;18.916;2023-03-03T04:32:55;151388.69;;;4.12;100.00
51287;BME280;37364;46.974;18.916;2023-03-03T04:35:27;151387.41;;;4.12;100.00
51287;BME280;37364;46.974;18.916;2023-03-03T04:37:57;151384.81;;;4.11;100.00
51287;BME280;37364;46.974;18.916;2023-03-03T04:40:27;151380.94;;;4.09;100.00
51287;BME280;37364;46.974;18.916;2023-03-03T04:43:02;151383.53;;;4.10;100.00
51287;BME280;37364;46.974;18.916;2023-03-03T04:45:32;151379.66;;;4.09;100.00
51287;BME280;37364;46.974;18.916;2023-03-03T04:48:04;151371.94;;;4.06;100.00
51287;BME280;37364;46.974;18.916;2023-03-03T04:50:35;151366.75;;;4.04;100.00
51287;BME280;37364;46.974;18.916;2023-03-03T04:53:05;151371.94;;;4.06;100.00
51287;BME280;37364;46.974;18.916;2023-03-03T04:55:36;151371.94;;;4.06;100.00
51287;BME280;37364;46.974;18.916;2023-03-03T04:58:09;151378.38;;;4.08;100.00
51287;BME280;37364;46.974;18.916;2023-03-03T05:00:40;151373.22;;;4.06;100.00
51287;BME280;37364;46.974;18.916;2023-03-03T05:03:11;151373.22;;;4.06;100.00
51287;BME280;37364;46.974;18.916;2023-03-03T05:05:42;151370.63;;;4.05;100.00
51287;BME280;37364;46.974;18.916;2023-03-03T05:08:12;151378.38;;;4.08;100.00
51287;BME280;37364;46.974;18.916;2023-03-03T05:10:43;151379.66;;;4.09;100.00
51287;BME280;37364;46.974;18.916;2023-03-03T05:13:16;151380.94;;;4.09;100.00
51287;BME280;37364;46.974;18.916;2023-03-03T05:15:49;151375.78;;;4.07;100.00
51287;BME280;37364;46.974;18.916;2023-03-03T05:18:21;151370.63;;;4.05;100.00
51287;BME280;37364;46.974;18.916;2023-03-03T05:20:55;151374.50;;;4.07;100.00
51287;BME280;37364;46.974;18.916;2023-03-03T05:23:25;151369.34;;;4.05;100.00
51287;BME280;37364;46.974;18.916;2023-03-03T05:25:56;151375.78;;;4.07;100.00
51287;BME280;37364;46.974;18.916;2023-03-03T05:28:29;151375.78;;;4.07;100.00
51287;BME280;37364;46.974;18.916;2023-03-03T05:30:59;151378.38;;;4.08;100.00
51287;BME280;37364;46.974;18.916;2023-03-03T05:33:29;151371.94;;;4.06;100.00
51287;BME280;37364;46.974;18.916;2023-03-03T05:35:59;151378.38;;;4.08;100.00
51287;BME280;37364;46.974;18.916;2023-03-03T05:38:30;151373.22;;;4.06;100.00
51287;BME280;37364;46.974;18.916;2023-03-03T05:41:00;151379.66;;;4.09;100.00
51287;BME280;37364;46.974;18.916;2023-03-03T05:43:33;151384.81;;;4.11;100.00
51287;BME280;37364;46.974;18.916;2023-03-03T05:46:04;151389.97;;;4.13;100.00
51287;BME280;37364;46.974;18.916;2023-03-03T05:48:34;151389.97;;;4.13;100.00
51287;BME280;37364;46.974;18.916;2023-03-03T05:51:04;151388.69;;;4.12;100.00
51287;BME280;37364;46.974;18.916;2023-03-03T05:53:38;151393.84;;;4.14;100.00
51287;BME280;37364;46.974;18.916;2023-03-03T05:56:08;151396.38;;;4.15;100.00
51287;BME280;37364;46.974;18.916;2023-03-03T05:58:41;151405.41;;;4.19;100.00
51287;BME280;37364;46.974;18.916;2023-03-03T06:01:11;151413.16;;;4.22;100.00
51287;BME280;37364;46.974;18.916;2023-03-03T06:03:41;151420.88;;;4.25;100.00
51287;BME280;37364;46.974;18.916;2023-03-03T06:06:12;151428.63;;;4.28;100.00
51287;BME280;37364;46.974;18.916;2023-03-03T06:08:43;151441.53;;;4.33;100.00
51287;BME280;37364;46.974;18.916;2023-03-03T06:11:13;151449.25;;;4.36;100.00
51287;BME280;37364;46.974;18.916;2023-03-03T06:13:48;151449.25;;;4.36;100.00
51287;BME280;37364;46.974;18.916;2023-03-03T06:16:19;151460.88;;;4.41;100.00
51287;BME280;37364;46.974;18.916;2023-03-03T06:18:49;151466.03;;;4.43;100.00
51287;BME280;37364;46.974;18.916;2023-03-03T06:21:19;151469.84;;;4.45;100.00
51287;BME280;37364;46.974;18.916;2023-03-03T06:23:49;151478.88;;;4.48;100.00
51287;BME280;37364;46.974;18.916;2023-03-03T06:26:19;151489.19;;;4.52;100.00
51287;BME280;37364;46.974;18.916;2023-03-03T06:28:52;151494.34;;;4.54;100.00
51287;BME280;37364;46.974;18.916;2023-03-03T06:31:22;151499.50;;;4.56;100.00
51287;BME280;37364;46.974;18.916;2023-03-03T06:33:53;151504.66;;;4.59;100.00
51287;BME280;37364;46.974;18.916;2023-03-03T06:36:23;151504.66;;;4.59;100.00
51287;BME280;37364;46.974;18.916;2023-03-03T06:38:54;151503.38;;;4.58;100.00
51287;BME280;37364;46.974;18.916;2023-03-03T06:41:24;151507.25;;;4.60;100.00
51287;BME280;37364;46.974;18.916;2023-03-03T06:43:57;151508.53;;;4.60;100.00
51287;BME280;37364;46.974;18.916;2023-03-03T06:46:27;151503.38;;;4.58;100.00
51287;BME280;37364;46.974;18.916;2023-03-03T06:48:57;151508.53;;;4.60;100.00
51287;BME280;37364;46.974;18.916;2023-03-03T06:51:31;151502.09;;;4.58;100.00
51287;BME280;37364;46.974;18.916;2023-03-03T06:54:09;151505.97;;;4.59;100.00
51287;BME280;37364;46.974;18.916;2023-03-03T06:56:41;151508.53;;;4.60;100.00
51287;BME280;37364;46.974;18.916;2023-03-03T06:59:15;151505.97;;;4.59;100.00
51287;BME280;37364;46.974;18.916;2023-03-03T07:01:47;151507.25;;;4.60;100.00
51287;BME280;37364;46.974;18.916;2023-03-03T07:04:24;151517.56;;;4.64;100.00
51287;BME280;37364;46.974;18.916;2023-03-03T07:06:59;151498.22;;;4.56;100.00
51287;BME280;37364;46.974;18.916;2023-03-03T07:09:29;151496.94;;;4.55;100.00
51287;BME280;37364;46.974;18.916;2023-03-03T07:12:01;151487.91;;;4.52;100.00
51287;BME280;37364;46.974;18.916;2023-03-03T07:14:42;151503.38;;;4.58;100.00
51287;BME280;37364;46.974;18.916;2023-03-03T07:17:15;151505.97;;;4.59;100.00
51287;BME280;37364;46.974;18.916;2023-03-03T07:19:46;151516.28;;;4.63;100.00
51287;BME280;37364;46.974;18.916;2023-03-03T07:22:18;151524.00;;;4.66;100.00
51287;BME280;37364;46.974;18.916;2023-03-03T07:24:50;151535.63;;;4.71;100.00
51287;BME280;37364;46.974;18.916;2023-03-03T07:27:23;151542.06;;;4.73;100.00
51287;BME280;37364;46.974;18.916;2023-03-03T07:30:18;151543.31;;;4.74;100.00
51287;BME280;37364;46.974;18.916;2023-03-03T07:32:52;151566.53;;;4.83;100.00
51287;BME280;37364;46.974;18.916;2023-03-03T07:35:35;151558.78;;;4.80;100.00
51287;BME280;37364;46.974;18.916;2023-03-03T07:38:23;151564.00;;;4.82;100.00
51287;BME280;37364;46.974;18.916;2023-03-03T07:40:55;151554.97;;;4.79;100.00
51287;BME280;37364;46.974;18.916;2023-03-03T07:43:33;151556.25;;;4.79;100.00
51287;BME280;37364;46.974;18.916;2023-03-03T07:46:25;151562.66;;;4.82;100.00
51287;BME280;37364;46.974;18.916;2023-03-03T07:48:59;151589.78;;;4.92;100.00
51287;BME280;37364;46.974;18.916;2023-03-03T07:51:36;151592.31;;;4.93;100.00
51287;BME280;37364;46.974;18.916;2023-03-03T07:54:21;151588.44;;;4.92;100.00
51287;BME280;37364;46.974;18.916;2023-03-03T07:56:57;151606.50;;;4.99;100.00
51287;BME280;37364;46.974;18.916;2023-03-03T07:59:34;151623.31;;;5.06;100.00
51287;BME280;37364;46.974;18.916;2023-03-03T08:02:33;151642.59;;;5.13;100.00
51287;BME280;37364;46.974;18.916;2023-03-03T08:05:23;151647.81;;;5.15;100.00
51287;BME280;37364;46.974;18.916;2023-03-03T08:08:10;151625.84;;;5.07;100.00
51287;BME280;37364;46.974;18.916;2023-03-03T08:10:45;151655.50;;;5.19;100.00
51287;BME280;37364;46.974;18.916;2023-03-03T08:13:16;151656.78;;;5.19;100.00
51287;BME280;37364;46.974;18.916;2023-03-03T08:15:49;151647.81;;;5.15;100.00
51287;BME280;37364;46.974;18.916;2023-03-03T08:18:27;151629.72;;;5.08;100.00
51287;BME280;37364;46.974;18.916;2023-03-03T08:20:59;151634.88;;;5.10;100.00
51287;BME280;37364;46.974;18.916;2023-03-03T08:23:30;151655.50;;;5.19;100.00
51287;BME280;37364;46.974;18.916;2023-03-03T08:26:00;151633.63;;;5.10;100.00
51287;BME280;37364;46.974;18.916;2023-03-03T08:28:30;151646.47;;;5.15;100.00
51287;BME280;37364;46.974;18.916;2023-03-03T08:31:00;151668.44;;;5.24;100.00
51287;BME280;37364;46.974;18.916;2023-03-03T08:33:46;151707.13;;;5.39;100.00
51287;BME280;37364;46.974;18.916;2023-03-03T08:36:17;151745.78;;;5.54;100.00
51287;BME280;37364;46.974;18.916;2023-03-03T08:38:50;151727.75;;;5.47;100.00
51287;BME280;37364;46.974;18.916;2023-03-03T08:41:20;151747.09;;;5.55;100.00
51287;BME280;37364;46.974;18.916;2023-03-03T08:43:53;151763.84;;;5.62;100.00
51287;BME280;37364;46.974;18.916;2023-03-03T08:46:23;151774.19;;;5.66;100.00
51287;BME280;37364;46.974;18.916;2023-03-03T08:48:57;151769.00;;;5.64;100.00
51287;BME280;37364;46.974;18.916;2023-03-03T08:51:28;151765.13;;;5.62;100.00
51287;BME280;37364;46.974;18.916;2023-03-03T08:54:00;151803.84;;;5.78;100.00
51287;BME280;37364;46.974;18.916;2023-03-03T08:56:30;151743.22;;;5.53;100.00
51287;BME280;37364;46.974;18.916;2023-03-03T08:59:00;151779.34;;;5.68;100.00
51287;BME280;37364;46.974;18.916;2023-03-03T09:01:30;151824.47;;;5.86;100.00
51287;BME280;37364;46.974;18.916;2023-03-03T09:04:04;151827.09;;;5.87;100.00
51287;BME280;37364;46.974;18.916;2023-03-03T09:06:34;151846.44;;;5.94;100.00
51287;BME280;37364;46.974;18.916;2023-03-03T09:09:04;151830.97;;;5.88;100.00
51287;BME280;37364;46.974;18.916;2023-03-03T09:11:34;151812.88;;;5.81;100.00
51287;BME280;37364;46.974;18.916;2023-03-03T09:14:09;151881.34;;;6.08;100.00
51287;BME280;37364;46.974;18.916;2023-03-03T09:16:50;151918.72;;;6.23;100.00
51287;BME280;37364;46.974;18.916;2023-03-03T09:19:26;151894.25;;;6.13;100.00
51287;BME280;37364;46.974;18.916;2023-03-03T09:22:01;151901.97;;;6.17;100.00
51287;BME280;37364;46.974;18.916;2023-03-03T09:24:35;151887.75;;;6.11;100.00
51287;BME280;37364;46.974;18.916;2023-03-03T09:27:12;151892.94;;;6.13;100.00
51287;BME280;37364;46.974;18.916;2023-03-03T09:29:44;151909.72;;;6.20;100.00
51287;BME280;37364;46.974;18.916;2023-03-03T09:32:27;151981.97;;;6.48;100.00
51287;BME280;37364;46.974;18.916;2023-03-03T09:35:34;151962.63;;;6.41;100.00
51287;BME280;37364;46.974;18.916;2023-03-03T09:38:18;152063.34;;;6.81;100.00
51287;BME280;37364;46.974;18.916;2023-03-03T09:41:11;152084.00;;;6.89;100.00
51287;BME280;37364;46.974;18.916;2023-03-03T09:43:56;152007.84;;;6.59;100.00
51287;BME280;37364;46.974;18.916;2023-03-03T09:46:37;152071.06;;;6.84;100.00
51287;BME280;37364;46.974;18.916;2023-03-03T09:49:22;152055.56;;;6.78;100.00
51287;BME280;37364;46.974;18.916;2023-03-03T09:52:13;152100.75;;;6.96;100.00
51287;BME280;37364;46.974;18.916;2023-03-03T09:54:55;152130.47;;;7.07;100.00
51287;BME280;37364;46.974;18.916;2023-03-03T09:57:36;152149.84;;;7.15;100.00
51287;BME280;37364;46.974;18.916;2023-03-03T10:00:21;152160.16;;;7.19;100.00
51287;BME280;37364;46.974;18.916;2023-03-03T10:03:21;152251.88;;;7.56;100.00
51287;BME280;37364;46.974;18.916;2023-03-03T10:05:57;152273.84;;;7.64;100.00
51287;BME280;37364;46.974;18.916;2023-03-03T10:08:47;152310.03;;;7.79;100.00
51287;BME280;37364;46.974;18.916;2023-03-03T10:11:21;152214.41;;;7.41;100.00
51287;BME280;37364;46.974;18.916;2023-03-03T10:17:05;152213.13;;;7.40;100.00
51287;BME280;37364;46.974;18.916;2023-03-03T10:19:40;152272.56;;;7.64;100.00
51287;BME280;37364;46.974;18.916;2023-03-03T10:22:17;152262.22;;;7.60;100.00
51287;BME280;37364;46.974;18.916;2023-03-03T10:25:02;152319.09;;;7.82;100.00
51287;BME280;37364;46.974;18.916;2023-03-03T10:27:46;152342.31;;;7.91;100.00
51287;BME280;37364;46.974;18.916;2023-03-03T10:30:27;152353.97;;;7.96;100.00
51287;BME280;37364;46.974;18.916;2023-03-03T10:33:15;152338.47;;;7.90;100.00
51287;BME280;37364;46.974;18.916;2023-03-03T10:36:10;152319.09;;;7.82;100.00
51287;BME280;37364;46.974;18.916;2023-03-03T10:39:00;152332.00;;;7.87;100.00
51287;BME280;37364;46.974;18.916;2023-03-03T10:41:51;152412.09;;;8.19;100.00
51287;BME280;37364;46.974;18.916;2023-03-03T10:44:41;152439.28;;;8.30;100.00
51287;BME280;37364;46.974;18.916;2023-03-03T10:47:30;152484.56;;;8.48;100.00
51287;BME280;37364;46.974;18.916;2023-03-03T10:50:13;152496.16;;;8.52;100.00
51287;BME280;37364;46.974;18.916;2023-03-03T10:52:48;152395.31;;;8.12;100.00
51287;BME280;37364;46.974;18.916;2023-03-03T10:55:31;152461.22;;;8.39;100.00
51287;BME280;37364;46.974;18.916;2023-03-03T11:01:18;152284.22;;;7.68;100.00
51287;BME280;37364;46.974;18.916;2023-03-03T11:04:15;152263.50;;;7.60;100.00
51287;BME280;37364;46.974;18.916;2023-03-03T11:06:54;152390.16;;;8.10;100.00
51287;BME280;37364;46.974;18.916;2023-03-03T11:09:36;152397.94;;;8.14;100.00
51287;BME280;37364;46.974;18.916;2023-03-03T11:12:21;152378.53;;;8.06;100.00
51287;BME280;37364;46.974;18.916;2023-03-03T11:15:07;152457.38;;;8.37;100.00
51287;BME280;37364;46.974;18.916;2023-03-03T11:17:57;152417.31;;;8.21;100.00
51287;BME280;37364;46.974;18.916;2023-03-03T11:20:37;152439.28;;;8.30;100.00
51287;BME280;37364;46.974;18.916;2023-03-03T11:23:30;152509.13;;;8.58;100.00
51287;BME280;37364;46.974;18.916;2023-03-03T11:26:08;152516.91;;;8.61;100.00
51287;BME280;37364;46.974;18.916;2023-03-03T11:28:53;152516.91;;;8.61;100.00
51287;BME280;37364;46.974;18.916;2023-03-03T11:31:32;152494.91;;;8.52;100.00
51287;BME280;37364;46.974;18.916;2023-03-03T11:34:15;152470.31;;;8.42;100.00
51287;BME280;37364;46.974;18.916;2023-03-03T11:36:51;152487.16;;;8.49;100.00
51287;BME280;37364;46.974;18.916;2023-03-03T11:39:25;152425.03;;;8.24;100.00
51287;BME280;37364;46.974;18.916;2023-03-03T11:42:03;152344.94;;;7.92;100.00
51287;BME280;37364;46.974;18.916;2023-03-03T11:44:38;152406.94;;;8.17;100.00
51287;BME280;37364;46.974;18.916;2023-03-03T11:47:16;152384.97;;;8.08;100.00
51287;BME280;37364;46.974;18.916;2023-03-03T11:49:55;152422.47;;;8.23;100.00
51287;BME280;37364;46.974;18.916;2023-03-03T11:52:37;152440.56;;;8.30;100.00
51287;BME280;37364;46.974;18.916;2023-03-03T11:55:16;152470.31;;;8.42;100.00
51287;BME280;37364;46.974;18.916;2023-03-03T11:57:52;152509.13;;;8.58;100.00
51287;BME280;37364;46.974;18.916;2023-03-03T12:00:31;152534.97;;;8.68;100.00
51287;BME280;37364;46.974;18.916;2023-03-03T12:03:23;152634.53;;;9.07;100.00
51287;BME280;37364;46.974;18.916;2023-03-03T12:06:05;152622.91;;;9.03;100.00
51287;BME280;37364;46.974;18.916;2023-03-03T12:08:48;152652.66;;;9.15;100.00
51287;BME280;37364;46.974;18.916;2023-03-03T12:11:27;152681.13;;;9.26;100.00
51287;BME280;37364;46.974;18.916;2023-03-03T12:14:07;152712.16;;;9.38;100.00
51287;BME280;37364;46.974;18.916;2023-03-03T12:16:50;152813.09;;;9.78;100.00
51287;BME280;37364;46.974;18.916;2023-03-03T12:19:34;152822.13;;;9.82;100.00
51287;BME280;37364;46.974;18.916;2023-03-03T12:22:23;152714.75;;;9.39;100.00
51287;BME280;37364;46.974;18.916;2023-03-03T12:25:15;152766.50;;;9.60;100.00
51287;BME280;37364;46.974;18.916;2023-03-03T12:27:52;152718.59;;;9.41;100.00
51287;BME280;37364;46.974;18.916;2023-03-03T12:33:34;152760.03;;;9.57;100.00
51287;BME280;37364;46.974;18.916;2023-03-03T12:36:17;152792.34;;;9.70;100.00
51287;BME280;37364;46.974;18.916;2023-03-03T12:38:55;152775.56;;;9.63;100.00
51287;BME280;37364;46.974;18.916;2023-03-03T12:41:36;152831.19;;;9.85;100.00
51287;BME280;37364;46.974;18.916;2023-03-03T12:44:17;152857.06;;;9.96;100.00
51287;BME280;37364;46.974;18.916;2023-03-03T12:46:56;152853.22;;;9.94;100.00
51287;BME280;37364;46.974;18.916;2023-03-03T12:49:35;152879.09;;;10.04;100.00
51287;BME280;37364;46.974;18.916;2023-03-03T12:52:22;152756.16;;;9.56;100.00
51287;BME280;37364;46.974;18.916;2023-03-03T12:55:15;152814.38;;;9.79;100.00
51287;BME280;37364;46.974;18.916;2023-03-03T12:57:58;152829.91;;;9.85;100.00
51287;BME280;37364;46.974;18.916;2023-03-03T13:00:39;152810.50;;;9.77;100.00
51287;BME280;37364;46.974;18.916;2023-03-03T13:03:19;152758.75;;;9.57;100.00
51287;BME280;37364;46.974;18.916;2023-03-03T13:06:05;152765.22;;;9.59;100.00
51287;BME280;37364;46.974;18.916;2023-03-03T13:08:50;152657.81;;;9.17;100.00
51287;BME280;37364;46.974;18.916;2023-03-03T13:11:35;152678.50;;;9.25;100.00
51287;BME280;37364;46.974;18.916;2023-03-03T13:14:15;152700.53;;;9.34;100.00
51287;BME280;37364;46.974;18.916;2023-03-03T13:17:00;152732.84;;;9.46;100.00
51287;BME280;37364;46.974;18.916;2023-03-03T13:19:36;152748.41;;;9.53;100.00
51287;BME280;37364;46.974;18.916;2023-03-03T13:22:12;152763.94;;;9.59;100.00
51287;BME280;37364;46.974;18.916;2023-03-03T13:24:54;152793.69;;;9.70;100.00
51287;BME280;37364;46.974;18.916;2023-03-03T13:27:34;152791.06;;;9.69;100.00
51287;BME280;37364;46.974;18.916;2023-03-03T13:30:15;152785.91;;;9.67;100.00
51287;BME280;37364;46.974;18.916;2023-03-03T13:32:50;152718.59;;;9.41;100.00
51287;BME280;37364;46.974;18.916;2023-03-03T13:35:30;152743.19;;;9.50;100.00